CheckWX is a tool to help pilots better visualize weather data.  It is not intended as a substitute for an official pre-flight weather briefing.

13:18:48 UTC

CYZY METAR
Mackenzie Airport
Mackenzie, Canada
Current

1 hour ago

CYZY 211200Z AUTO 16012KT 9SM OVC100 12/07 A2987 RMK SLP126 DENSITY ALT 2400FT
Observed
Sep-21 @ 12:00 UTC
Wind
  • 160° at 12 KTS
Visibility
9 SM
Flight Rules
VFR
Cloud Levels
  • Overcast at 10,000' AGL
Temperature
12°C / 54°F
Dewpoint
C / 45°F
Humidity
72%
Altimeter
29.87" Hg
Pressure
1011.52 hPa
Previous

2 hours ago

CYZY 211100Z AUTO 16010KT 9SM OVC095 12/07 A2988 RMK SLP129 DENSITY ALT 2400FT
Observed
Sep-21 @ 11:00 UTC
Wind
  • 160° at 10 KTS
Visibility
9 SM
Flight Rules
VFR
Cloud Levels
  • Overcast at 9,500' AGL
Temperature
12°C / 54°F
Dewpoint
C / 45°F
Humidity
72%
Altimeter
29.88" Hg
Pressure
1011.82 hPa
Previous

3 hours ago

CYZY 211000Z AUTO 15007KT 9SM SCT095 12/07 A2988 RMK SLP129 DENSITY ALT 2400FT
Observed
Sep-21 @ 10:00 UTC
Wind
  • 150° at 7 KTS
Visibility
9 SM
Flight Rules
VFR
Cloud Levels
  • Scattered at 9,500' AGL
Temperature
12°C / 54°F
Dewpoint
C / 45°F
Humidity
72%
Altimeter
29.88" Hg
Pressure
1011.82 hPa